sensor_id;sensor_type;location;lat;lon;timestamp;P1;durP1;ratioP1;P2;durP2;ratioP2
74102;SDS011;62853;46.166;3.640;2023-12-28T00:01:10;2.88;;;1.85;;
74102;SDS011;62853;46.166;3.640;2023-12-28T00:03:35;3.88;;;1.67;;
74102;SDS011;62853;46.166;3.640;2023-12-28T00:06:01;2.60;;;1.58;;
74102;SDS011;62853;46.166;3.640;2023-12-28T00:08:26;2.58;;;1.50;;
74102;SDS011;62853;46.166;3.640;2023-12-28T00:10:51;2.28;;;1.58;;
74102;SDS011;62853;46.166;3.640;2023-12-28T00:13:17;2.67;;;1.52;;
74102;SDS011;62853;46.166;3.640;2023-12-28T00:15:42;2.42;;;1.40;;
74102;SDS011;62853;46.166;3.640;2023-12-28T00:18:07;4.07;;;1.50;;
74102;SDS011;62853;46.166;3.640;2023-12-28T00:20:33;4.30;;;1.70;;
74102;SDS011;62853;46.166;3.640;2023-12-28T00:22:58;2.90;;;1.40;;
74102;SDS011;62853;46.166;3.640;2023-12-28T00:25:25;3.25;;;1.52;;
74102;SDS011;62853;46.166;3.640;2023-12-28T00:27:50;1.85;;;1.38;;
74102;SDS011;62853;46.166;3.640;2023-12-28T00:30:16;2.40;;;1.50;;
74102;SDS011;62853;46.166;3.640;2023-12-28T00:32:42;2.92;;;1.48;;
74102;SDS011;62853;46.166;3.640;2023-12-28T00:35:09;1.45;;;1.25;;
74102;SDS011;62853;46.166;3.640;2023-12-28T00:37:35;3.80;;;1.50;;
74102;SDS011;62853;46.166;3.640;2023-12-28T00:40:00;3.40;;;1.88;;
74102;SDS011;62853;46.166;3.640;2023-12-28T00:42:26;2.95;;;1.52;;
74102;SDS011;62853;46.166;3.640;2023-12-28T00:44:51;2.85;;;1.65;;
74102;SDS011;62853;46.166;3.640;2023-12-28T00:47:17;2.30;;;1.45;;
74102;SDS011;62853;46.166;3.640;2023-12-28T00:49:43;1.95;;;1.40;;
74102;SDS011;62853;46.166;3.640;2023-12-28T00:52:08;2.20;;;1.58;;
74102;SDS011;62853;46.166;3.640;2023-12-28T00:54:35;1.83;;;1.40;;
74102;SDS011;62853;46.166;3.640;2023-12-28T00:57:02;1.85;;;1.50;;
74102;SDS011;62853;46.166;3.640;2023-12-28T00:59:30;2.20;;;1.65;;
74102;SDS011;62853;46.166;3.640;2023-12-28T01:01:56;3.38;;;1.52;;
74102;SDS011;62853;46.166;3.640;2023-12-28T01:04:21;3.03;;;1.60;;
74102;SDS011;62853;46.166;3.640;2023-12-28T01:06:48;4.07;;;2.05;;
74102;SDS011;62853;46.166;3.640;2023-12-28T01:09:14;2.97;;;1.30;;
74102;SDS011;62853;46.166;3.640;2023-12-28T01:11:39;2.92;;;1.60;;
74102;SDS011;62853;46.166;3.640;2023-12-28T01:14:05;1.80;;;1.38;;
74102;SDS011;62853;46.166;3.640;2023-12-28T01:16:30;1.83;;;1.33;;
74102;SDS011;62853;46.166;3.640;2023-12-28T01:18:55;2.85;;;1.60;;
74102;SDS011;62853;46.166;3.640;2023-12-28T01:21:21;2.55;;;1.40;;
74102;SDS011;62853;46.166;3.640;2023-12-28T01:23:46;2.92;;;1.55;;
74102;SDS011;62853;46.166;3.640;2023-12-28T01:26:12;3.08;;;1.52;;
74102;SDS011;62853;46.166;3.640;2023-12-28T01:28:39;2.65;;;1.40;;
74102;SDS011;62853;46.166;3.640;2023-12-28T01:31:04;1.67;;;1.23;;
74102;SDS011;62853;46.166;3.640;2023-12-28T01:33:30;2.60;;;1.33;;
74102;SDS011;62853;46.166;3.640;2023-12-28T01:35:55;2.20;;;1.33;;
74102;SDS011;62853;46.166;3.640;2023-12-28T01:38:20;3.35;;;1.10;;
74102;SDS011;62853;46.166;3.640;2023-12-28T01:40:46;2.85;;;1.30;;
74102;SDS011;62853;46.166;3.640;2023-12-28T01:43:11;3.60;;;1.40;;
74102;SDS011;62853;46.166;3.640;2023-12-28T01:45:37;2.45;;;1.40;;
74102;SDS011;62853;46.166;3.640;2023-12-28T01:48:02;2.08;;;1.23;;
74102;SDS011;62853;46.166;3.640;2023-12-28T01:50:28;2.78;;;1.40;;
74102;SDS011;62853;46.166;3.640;2023-12-28T01:52:56;2.65;;;1.42;;
74102;SDS011;62853;46.166;3.640;2023-12-28T01:55:25;2.38;;;1.40;;
74102;SDS011;62853;46.166;3.640;2023-12-28T01:57:52;2.20;;;1.27;;
74102;SDS011;62853;46.166;3.640;2023-12-28T02:00:19;2.40;;;1.33;;
74102;SDS011;62853;46.166;3.640;2023-12-28T02:02:49;1.83;;;1.10;;
74102;SDS011;62853;46.166;3.640;2023-12-28T02:05:16;3.25;;;1.60;;
74102;SDS011;62853;46.166;3.640;2023-12-28T02:07:41;2.40;;;1.60;;
74102;SDS011;62853;46.166;3.640;2023-12-28T02:10:07;2.83;;;1.33;;
74102;SDS011;62853;46.166;3.640;2023-12-28T02:12:33;1.67;;;1.23;;
74102;SDS011;62853;46.166;3.640;2023-12-28T02:14:58;3.78;;;1.83;;
74102;SDS011;62853;46.166;3.640;2023-12-28T02:20:32;1.40;;;1.10;;
74102;SDS011;62853;46.166;3.640;2023-12-28T02:22:59;4.15;;;1.40;;
74102;SDS011;62853;46.166;3.640;2023-12-28T02:25:26;2.13;;;1.20;;
74102;SDS011;62853;46.166;3.640;2023-12-28T02:27:51;1.70;;;1.13;;
74102;SDS011;62853;46.166;3.640;2023-12-28T02:30:18;2.78;;;1.20;;
74102;SDS011;62853;46.166;3.640;2023-12-28T02:35:37;2.90;;;1.30;;
74102;SDS011;62853;46.166;3.640;2023-12-28T02:38:09;2.40;;;1.30;;
74102;SDS011;62853;46.166;3.640;2023-12-28T02:40:36;2.75;;;1.30;;
74102;SDS011;62853;46.166;3.640;2023-12-28T02:43:04;2.90;;;1.50;;
74102;SDS011;62853;46.166;3.640;2023-12-28T02:45:30;2.25;;;1.25;;
74102;SDS011;62853;46.166;3.640;2023-12-28T02:47:56;2.25;;;1.33;;
74102;SDS011;62853;46.166;3.640;2023-12-28T02:50:21;2.55;;;1.30;;
74102;SDS011;62853;46.166;3.640;2023-12-28T02:52:46;1.90;;;1.23;;
74102;SDS011;62853;46.166;3.640;2023-12-28T02:55:12;2.25;;;1.20;;
74102;SDS011;62853;46.166;3.640;2023-12-28T02:57:37;2.45;;;1.60;;
74102;SDS011;62853;46.166;3.640;2023-12-28T03:00:06;2.92;;;1.38;;
74102;SDS011;62853;46.166;3.640;2023-12-28T03:02:36;1.48;;;1.10;;
74102;SDS011;62853;46.166;3.640;2023-12-28T03:05:02;2.05;;;1.35;;
74102;SDS011;62853;46.166;3.640;2023-12-28T03:07:28;3.15;;;1.33;;
74102;SDS011;62853;46.166;3.640;2023-12-28T03:09:54;2.13;;;1.50;;
74102;SDS011;62853;46.166;3.640;2023-12-28T03:12:19;3.67;;;1.33;;
74102;SDS011;62853;46.166;3.640;2023-12-28T03:14:45;4.07;;;1.20;;
74102;SDS011;62853;46.166;3.640;2023-12-28T03:17:10;3.25;;;1.15;;
74102;SDS011;62853;46.166;3.640;2023-12-28T03:19:36;3.35;;;1.55;;
74102;SDS011;62853;46.166;3.640;2023-12-28T03:22:02;2.15;;;1.40;;
74102;SDS011;62853;46.166;3.640;2023-12-28T03:24:28;1.92;;;1.33;;
74102;SDS011;62853;46.166;3.640;2023-12-28T03:26:53;1.60;;;1.20;;
74102;SDS011;62853;46.166;3.640;2023-12-28T03:29:19;2.45;;;1.20;;
74102;SDS011;62853;46.166;3.640;2023-12-28T03:31:45;3.30;;;1.40;;
74102;SDS011;62853;46.166;3.640;2023-12-28T03:34:10;3.65;;;1.50;;
74102;SDS011;62853;46.166;3.640;2023-12-28T03:36:35;3.03;;;1.65;;
74102;SDS011;62853;46.166;3.640;2023-12-28T03:39:01;1.45;;;1.10;;
74102;SDS011;62853;46.166;3.640;2023-12-28T03:41:28;5.30;;;1.55;;
74102;SDS011;62853;46.166;3.640;2023-12-28T03:43:54;5.47;;;1.63;;
74102;SDS011;62853;46.166;3.640;2023-12-28T03:46:20;3.38;;;1.33;;
74102;SDS011;62853;46.166;3.640;2023-12-28T03:48:45;1.20;;;1.10;;
74102;SDS011;62853;46.166;3.640;2023-12-28T03:51:14;2.33;;;1.20;;
74102;SDS011;62853;46.166;3.640;2023-12-28T03:53:41;3.78;;;1.50;;
74102;SDS011;62853;46.166;3.640;2023-12-28T03:56:07;2.35;;;1.38;;
74102;SDS011;62853;46.166;3.640;2023-12-28T03:58:32;3.17;;;1.20;;
74102;SDS011;62853;46.166;3.640;2023-12-28T04:00:58;4.10;;;1.60;;
74102;SDS011;62853;46.166;3.640;2023-12-28T04:03:23;3.15;;;1.40;;
74102;SDS011;62853;46.166;3.640;2023-12-28T04:05:50;3.47;;;1.40;;
74102;SDS011;62853;46.166;3.640;2023-12-28T04:08:16;1.85;;;1.10;;
74102;SDS011;62853;46.166;3.640;2023-12-28T04:10:41;2.25;;;1.27;;
74102;SDS011;62853;46.166;3.640;2023-12-28T04:13:07;4.32;;;1.40;;
74102;SDS011;62853;46.166;3.640;2023-12-28T04:15:32;4.45;;;1.80;;
74102;SDS011;62853;46.166;3.640;2023-12-28T04:17:57;2.75;;;1.27;;
74102;SDS011;62853;46.166;3.640;2023-12-28T04:20:23;2.70;;;1.67;;
74102;SDS011;62853;46.166;3.640;2023-12-28T04:22:48;4.68;;;1.58;;
74102;SDS011;62853;46.166;3.640;2023-12-28T04:25:14;4.13;;;1.33;;
74102;SDS011;62853;46.166;3.640;2023-12-28T04:27:41;2.55;;;1.40;;
74102;SDS011;62853;46.166;3.640;2023-12-28T04:30:07;5.47;;;1.60;;
74102;SDS011;62853;46.166;3.640;2023-12-28T04:32:32;1.73;;;1.38;;
74102;SDS011;62853;46.166;3.640;2023-12-28T04:34:58;3.40;;;1.55;;
74102;SDS011;62853;46.166;3.640;2023-12-28T04:37:23;3.15;;;1.25;;
74102;SDS011;62853;46.166;3.640;2023-12-28T04:39:51;3.30;;;1.35;;
74102;SDS011;62853;46.166;3.640;2023-12-28T04:42:16;4.78;;;1.33;;
74102;SDS011;62853;46.166;3.640;2023-12-28T04:44:41;3.22;;;1.30;;
74102;SDS011;62853;46.166;3.640;2023-12-28T04:47:07;2.88;;;1.35;;
74102;SDS011;62853;46.166;3.640;2023-12-28T04:49:32;2.47;;;1.20;;
74102;SDS011;62853;46.166;3.640;2023-12-28T04:51:57;3.13;;;1.30;;
74102;SDS011;62853;46.166;3.640;2023-12-28T04:54:25;3.10;;;1.42;;
74102;SDS011;62853;46.166;3.640;2023-12-28T04:56:50;2.25;;;1.05;;
74102;SDS011;62853;46.166;3.640;2023-12-28T04:59:15;3.65;;;1.50;;
74102;SDS011;62853;46.166;3.640;2023-12-28T05:01:41;3.40;;;1.30;;
74102;SDS011;62853;46.166;3.640;2023-12-28T05:04:07;4.15;;;1.30;;
74102;SDS011;62853;46.166;3.640;2023-12-28T05:06:32;3.25;;;1.40;;
74102;SDS011;62853;46.166;3.640;2023-12-28T05:08:58;3.25;;;1.30;;
74102;SDS011;62853;46.166;3.640;2023-12-28T05:11:23;6.00;;;1.83;;
74102;SDS011;62853;46.166;3.640;2023-12-28T05:13:48;5.15;;;1.50;;
74102;SDS011;62853;46.166;3.640;2023-12-28T05:16:14;3.33;;;1.17;;
74102;SDS011;62853;46.166;3.640;2023-12-28T05:18:39;4.47;;;1.10;;
74102;SDS011;62853;46.166;3.640;2023-12-28T05:21:04;2.85;;;1.15;;
74102;SDS011;62853;46.166;3.640;2023-12-28T05:23:30;4.68;;;1.30;;
74102;SDS011;62853;46.166;3.640;2023-12-28T05:25:55;4.43;;;1.20;;
74102;SDS011;62853;46.166;3.640;2023-12-28T05:28:20;5.30;;;1.48;;
74102;SDS011;62853;46.166;3.640;2023-12-28T05:30:46;8.32;;;1.75;;
74102;SDS011;62853;46.166;3.640;2023-12-28T05:33:11;5.07;;;1.20;;
74102;SDS011;62853;46.166;3.640;2023-12-28T05:35:36;4.80;;;1.55;;
74102;SDS011;62853;46.166;3.640;2023-12-28T05:38:02;3.25;;;1.33;;
74102;SDS011;62853;46.166;3.640;2023-12-28T05:40:27;5.13;;;2.05;;
74102;SDS011;62853;46.166;3.640;2023-12-28T05:42:53;3.47;;;1.20;;
74102;SDS011;62853;46.166;3.640;2023-12-28T05:45:18;4.45;;;0.98;;
74102;SDS011;62853;46.166;3.640;2023-12-28T05:47:43;3.72;;;1.13;;
74102;SDS011;62853;46.166;3.640;2023-12-28T05:50:09;4.40;;;1.30;;
74102;SDS011;62853;46.166;3.640;2023-12-28T05:52:35;5.28;;;1.38;;
74102;SDS011;62853;46.166;3.640;2023-12-28T05:55:00;3.60;;;1.30;;
74102;SDS011;62853;46.166;3.640;2023-12-28T05:57:25;7.07;;;1.55;;
74102;SDS011;62853;46.166;3.640;2023-12-28T05:59:54;6.07;;;1.35;;
74102;SDS011;62853;46.166;3.640;2023-12-28T06:02:20;6.22;;;1.40;;
74102;SDS011;62853;46.166;3.640;2023-12-28T06:04:45;6.63;;;1.60;;
74102;SDS011;62853;46.166;3.640;2023-12-28T06:07:11;6.05;;;1.48;;
74102;SDS011;62853;46.166;3.640;2023-12-28T06:09:36;5.75;;;0.90;;
74102;SDS011;62853;46.166;3.640;2023-12-28T06:12:03;6.78;;;1.58;;
74102;SDS011;62853;46.166;3.640;2023-12-28T06:14:32;4.95;;;1.45;;
74102;SDS011;62853;46.166;3.640;2023-12-28T06:16:57;5.95;;;1.48;;
74102;SDS011;62853;46.166;3.640;2023-12-28T06:19:23;4.88;;;1.20;;
74102;SDS011;62853;46.166;3.640;2023-12-28T06:21:49;6.10;;;1.30;;
74102;SDS011;62853;46.166;3.640;2023-12-28T06:24:14;3.58;;;1.27;;
74102;SDS011;62853;46.166;3.640;2023-12-28T06:26:42;6.80;;;1.35;;
74102;SDS011;62853;46.166;3.640;2023-12-28T06:29:09;4.68;;;1.55;;
74102;SDS011;62853;46.166;3.640;2023-12-28T06:31:35;5.47;;;1.30;;
74102;SDS011;62853;46.166;3.640;2023-12-28T06:34:02;3.95;;;1.50;;
74102;SDS011;62853;46.166;3.640;2023-12-28T06:36:31;7.07;;;1.30;;
74102;SDS011;62853;46.166;3.640;2023-12-28T06:38:57;6.80;;;1.58;;
74102;SDS011;62853;46.166;3.640;2023-12-28T06:41:22;4.63;;;1.58;;
74102;SDS011;62853;46.166;3.640;2023-12-28T06:43:49;6.68;;;1.25;;
74102;SDS011;62853;46.166;3.640;2023-12-28T06:46:14;4.85;;;1.48;;
74102;SDS011;62853;46.166;3.640;2023-12-28T06:48:40;6.10;;;1.55;;
74102;SDS011;62853;46.166;3.640;2023-12-28T06:51:23;6.03;;;1.50;;
74102;SDS011;62853;46.166;3.640;2023-12-28T06:53:49;5.65;;;1.50;;
74102;SDS011;62853;46.166;3.640;2023-12-28T06:56:14;3.97;;;1.23;;
74102;SDS011;62853;46.166;3.640;2023-12-28T06:58:40;6.97;;;1.30;;
74102;SDS011;62853;46.166;3.640;2023-12-28T07:01:06;7.22;;;1.63;;
74102;SDS011;62853;46.166;3.640;2023-12-28T07:03:34;8.98;;;1.50;;
74102;SDS011;62853;46.166;3.640;2023-12-28T07:06:00;6.50;;;1.27;;
74102;SDS011;62853;46.166;3.640;2023-12-28T07:08:25;8.80;;;2.25;;
74102;SDS011;62853;46.166;3.640;2023-12-28T07:10:51;3.83;;;1.30;;
74102;SDS011;62853;46.166;3.640;2023-12-28T07:13:16;8.95;;;1.73;;
74102;SDS011;62853;46.166;3.640;2023-12-28T07:15:41;8.00;;;1.45;;
74102;SDS011;62853;46.166;3.640;2023-12-28T07:18:07;9.00;;;1.52;;
74102;SDS011;62853;46.166;3.640;2023-12-28T07:20:32;5.95;;;1.52;;
74102;SDS011;62853;46.166;3.640;2023-12-28T07:22:58;8.52;;;1.73;;
74102;SDS011;62853;46.166;3.640;2023-12-28T07:25:23;4.60;;;1.40;;
74102;SDS011;62853;46.166;3.640;2023-12-28T07:27:48;8.23;;;1.65;;
74102;SDS011;62853;46.166;3.640;2023-12-28T07:30:14;5.90;;;1.23;;
74102;SDS011;62853;46.166;3.640;2023-12-28T07:32:41;5.70;;;1.50;;
74102;SDS011;62853;46.166;3.640;2023-12-28T07:35:07;3.28;;;1.42;;
74102;SDS011;62853;46.166;3.640;2023-12-28T07:37:33;4.32;;;1.30;;
74102;SDS011;62853;46.166;3.640;2023-12-28T07:39:59;5.32;;;1.20;;
74102;SDS011;62853;46.166;3.640;2023-12-28T07:42:24;4.93;;;1.17;;
74102;SDS011;62853;46.166;3.640;2023-12-28T07:44:50;11.27;;;2.13;;
74102;SDS011;62853;46.166;3.640;2023-12-28T07:47:15;5.05;;;1.20;;
74102;SDS011;62853;46.166;3.640;2023-12-28T07:49:40;5.82;;;1.42;;
74102;SDS011;62853;46.166;3.640;2023-12-28T07:52:06;7.90;;;1.75;;
74102;SDS011;62853;46.166;3.640;2023-12-28T07:54:31;5.53;;;1.50;;
74102;SDS011;62853;46.166;3.640;2023-12-28T07:56:56;6.05;;;1.25;;
74102;SDS011;62853;46.166;3.640;2023-12-28T07:59:22;7.70;;;1.40;;
74102;SDS011;62853;46.166;3.640;2023-12-28T08:01:48;6.13;;;1.42;;
74102;SDS011;62853;46.166;3.640;2023-12-28T08:04:13;5.88;;;1.42;;
74102;SDS011;62853;46.166;3.640;2023-12-28T08:06:38;9.48;;;1.48;;
74102;SDS011;62853;46.166;3.640;2023-12-28T08:09:04;6.30;;;1.63;;
74102;SDS011;62853;46.166;3.640;2023-12-28T08:11:29;5.32;;;1.20;;
74102;SDS011;62853;46.166;3.640;2023-12-28T08:13:54;7.47;;;1.48;;
74102;SDS011;62853;46.166;3.640;2023-12-28T08:16:20;4.40;;;1.35;;
74102;SDS011;62853;46.166;3.640;2023-12-28T08:18:46;3.72;;;1.35;;
74102;SDS011;62853;46.166;3.640;2023-12-28T08:21:11;4.03;;;1.20;;
74102;SDS011;62853;46.166;3.640;2023-12-28T08:23:37;8.95;;;2.85;;
74102;SDS011;62853;46.166;3.640;2023-12-28T08:26:02;8.52;;;2.80;;
74102;SDS011;62853;46.166;3.640;2023-12-28T08:28:28;12.50;;;3.53;;
74102;SDS011;62853;46.166;3.640;2023-12-28T08:30:53;6.20;;;1.42;;
74102;SDS011;62853;46.166;3.640;2023-12-28T08:33:19;5.00;;;1.27;;
74102;SDS011;62853;46.166;3.640;2023-12-28T08:35:45;5.22;;;1.40;;
74102;SDS011;62853;46.166;3.640;2023-12-28T08:38:10;6.22;;;1.30;;
74102;SDS011;62853;46.166;3.640;2023-12-28T08:40:36;4.82;;;1.27;;
74102;SDS011;62853;46.166;3.640;2023-12-28T08:43:01;8.30;;;1.50;;
74102;SDS011;62853;46.166;3.640;2023-12-28T08:45:27;8.57;;;2.28;;
74102;SDS011;62853;46.166;3.640;2023-12-28T08:47:52;9.13;;;1.70;;
74102;SDS011;62853;46.166;3.640;2023-12-28T08:50:17;8.32;;;1.83;;
74102;SDS011;62853;46.166;3.640;2023-12-28T08:52:44;5.97;;;1.23;;
74102;SDS011;62853;46.166;3.640;2023-12-28T08:55:09;5.97;;;1.50;;
74102;SDS011;62853;46.166;3.640;2023-12-28T08:57:35;7.05;;;1.90;;
74102;SDS011;62853;46.166;3.640;2023-12-28T09:00:00;8.75;;;1.88;;
74102;SDS011;62853;46.166;3.640;2023-12-28T09:02:28;6.40;;;1.27;;
74102;SDS011;62853;46.166;3.640;2023-12-28T09:04:54;8.55;;;1.98;;
74102;SDS011;62853;46.166;3.640;2023-12-28T09:07:19;9.32;;;1.60;;
74102;SDS011;62853;46.166;3.640;2023-12-28T09:09:45;7.15;;;1.70;;
74102;SDS011;62853;46.166;3.640;2023-12-28T09:12:11;6.82;;;1.50;;
74102;SDS011;62853;46.166;3.640;2023-12-28T09:14:36;5.80;;;1.58;;
74102;SDS011;62853;46.166;3.640;2023-12-28T09:17:02;5.85;;;1.52;;
74102;SDS011;62853;46.166;3.640;2023-12-28T09:19:27;6.03;;;1.63;;
74102;SDS011;62853;46.166;3.640;2023-12-28T09:21:52;6.60;;;1.70;;
74102;SDS011;62853;46.166;3.640;2023-12-28T09:24:18;5.20;;;1.35;;
74102;SDS011;62853;46.166;3.640;2023-12-28T09:26:43;7.40;;;1.50;;
74102;SDS011;62853;46.166;3.640;2023-12-28T09:29:09;7.25;;;1.27;;
74102;SDS011;62853;46.166;3.640;2023-12-28T09:31:34;4.85;;;1.73;;
74102;SDS011;62853;46.166;3.640;2023-12-28T09:34:00;8.98;;;1.50;;
74102;SDS011;62853;46.166;3.640;2023-12-28T09:36:26;6.00;;;1.42;;
74102;SDS011;62853;46.166;3.640;2023-12-28T09:38:51;6.10;;;1.40;;
74102;SDS011;62853;46.166;3.640;2023-12-28T09:41:16;6.72;;;1.33;;
74102;SDS011;62853;46.166;3.640;2023-12-28T09:44:00;7.70;;;2.95;;
74102;SDS011;62853;46.166;3.640;2023-12-28T09:46:33;4.80;;;1.10;;
74102;SDS011;62853;46.166;3.640;2023-12-28T09:48:58;7.50;;;1.50;;
74102;SDS011;62853;46.166;3.640;2023-12-28T09:51:25;5.85;;;1.38;;
74102;SDS011;62853;46.166;3.640;2023-12-28T09:53:50;8.68;;;1.75;;
74102;SDS011;62853;46.166;3.640;2023-12-28T09:56:16;4.13;;;1.48;;
74102;SDS011;62853;46.166;3.640;2023-12-28T09:58:42;6.05;;;1.42;;
74102;SDS011;62853;46.166;3.640;2023-12-28T10:01:09;4.25;;;1.30;;
74102;SDS011;62853;46.166;3.640;2023-12-28T10:03:35;6.32;;;1.35;;
74102;SDS011;62853;46.166;3.640;2023-12-28T10:06:01;7.18;;;1.33;;
74102;SDS011;62853;46.166;3.640;2023-12-28T10:08:26;5.97;;;1.30;;
74102;SDS011;62853;46.166;3.640;2023-12-28T10:10:52;7.25;;;1.90;;
74102;SDS011;62853;46.166;3.640;2023-12-28T10:13:19;8.02;;;1.77;;
74102;SDS011;62853;46.166;3.640;2023-12-28T10:15:46;8.27;;;1.55;;
74102;SDS011;62853;46.166;3.640;2023-12-28T10:18:12;7.40;;;1.35;;
74102;SDS011;62853;46.166;3.640;2023-12-28T10:20:38;5.75;;;1.40;;
74102;SDS011;62853;46.166;3.640;2023-12-28T10:23:04;5.80;;;1.25;;
74102;SDS011;62853;46.166;3.640;2023-12-28T10:25:29;3.78;;;1.35;;
74102;SDS011;62853;46.166;3.640;2023-12-28T10:27:56;6.15;;;1.58;;
74102;SDS011;62853;46.166;3.640;2023-12-28T10:30:22;4.57;;;1.27;;
74102;SDS011;62853;46.166;3.640;2023-12-28T10:32:48;8.63;;;1.80;;
74102;SDS011;62853;46.166;3.640;2023-12-28T10:35:14;2.97;;;1.17;;
74102;SDS011;62853;46.166;3.640;2023-12-28T10:37:40;6.22;;;1.55;;
74102;SDS011;62853;46.166;3.640;2023-12-28T10:40:07;5.85;;;1.10;;
74102;SDS011;62853;46.166;3.640;2023-12-28T10:42:45;7.15;;;1.30;;
74102;SDS011;62853;46.166;3.640;2023-12-28T10:45:11;6.82;;;1.30;;
74102;SDS011;62853;46.166;3.640;2023-12-28T10:47:42;4.97;;;1.40;;
74102;SDS011;62853;46.166;3.640;2023-12-28T10:50:12;9.90;;;2.78;;
74102;SDS011;62853;46.166;3.640;2023-12-28T10:52:39;8.88;;;1.65;;
74102;SDS011;62853;46.166;3.640;2023-12-28T10:55:22;6.93;;;1.38;;
74102;SDS011;62853;46.166;3.640;2023-12-28T10:57:58;4.97;;;1.30;;
74102;SDS011;62853;46.166;3.640;2023-12-28T11:00:30;8.13;;;1.38;;
74102;SDS011;62853;46.166;3.640;2023-12-28T11:03:02;5.65;;;1.63;;
74102;SDS011;62853;46.166;3.640;2023-12-28T11:05:28;6.65;;;1.45;;
74102;SDS011;62853;46.166;3.640;2023-12-28T11:07:55;8.20;;;1.77;;
74102;SDS011;62853;46.166;3.640;2023-12-28T11:10:23;4.55;;;1.50;;
74102;SDS011;62853;46.166;3.640;2023-12-28T11:12:53;11.43;;;1.70;;
74102;SDS011;62853;46.166;3.640;2023-12-28T11:15:19;7.78;;;1.50;;
74102;SDS011;62853;46.166;3.640;2023-12-28T11:17:44;8.70;;;2.10;;
74102;SDS011;62853;46.166;3.640;2023-12-28T11:20:10;9.25;;;1.67;;
74102;SDS011;62853;46.166;3.640;2023-12-28T11:22:36;6.45;;;1.30;;
74102;SDS011;62853;46.166;3.640;2023-12-28T11:25:03;7.25;;;1.80;;
74102;SDS011;62853;46.166;3.640;2023-12-28T11:27:33;6.25;;;1.55;;
74102;SDS011;62853;46.166;3.640;2023-12-28T11:30:05;9.13;;;1.70;;
74102;SDS011;62853;46.166;3.640;2023-12-28T11:32:35;8.88;;;1.50;;
74102;SDS011;62853;46.166;3.640;2023-12-28T11:35:01;5.32;;;1.45;;
74102;SDS011;62853;46.166;3.640;2023-12-28T11:37:26;8.13;;;1.67;;
74102;SDS011;62853;46.166;3.640;2023-12-28T11:39:54;8.80;;;1.80;;
74102;SDS011;62853;46.166;3.640;2023-12-28T11:42:22;5.78;;;1.83;;
74102;SDS011;62853;46.166;3.640;2023-12-28T11:44:48;7.10;;;1.90;;
74102;SDS011;62853;46.166;3.640;2023-12-28T11:47:23;9.57;;;1.70;;
74102;SDS011;62853;46.166;3.640;2023-12-28T11:49:49;5.97;;;1.50;;
74102;SDS011;62853;46.166;3.640;2023-12-28T11:52:29;5.60;;;1.67;;
74102;SDS011;62853;46.166;3.640;2023-12-28T11:54:56;5.07;;;1.35;;
74102;SDS011;62853;46.166;3.640;2023-12-28T11:57:23;4.80;;;1.30;;
74102;SDS011;62853;46.166;3.640;2023-12-28T11:59:52;5.68;;;1.30;;
74102;SDS011;62853;46.166;3.640;2023-12-28T12:02:19;10.65;;;1.55;;
74102;SDS011;62853;46.166;3.640;2023-12-28T12:04:45;6.90;;;1.30;;
74102;SDS011;62853;46.166;3.640;2023-12-28T12:07:11;6.43;;;1.88;;
74102;SDS011;62853;46.166;3.640;2023-12-28T12:09:36;6.95;;;1.73;;
74102;SDS011;62853;46.166;3.640;2023-12-28T12:12:01;10.38;;;2.90;;
74102;SDS011;62853;46.166;3.640;2023-12-28T12:14:27;11.10;;;1.80;;
74102;SDS011;62853;46.166;3.640;2023-12-28T12:16:54;7.75;;;1.70;;
74102;SDS011;62853;46.166;3.640;2023-12-28T12:19:23;5.25;;;1.40;;
74102;SDS011;62853;46.166;3.640;2023-12-28T12:21:51;13.57;;;2.65;;
74102;SDS011;62853;46.166;3.640;2023-12-28T12:24:21;6.72;;;1.70;;
74102;SDS011;62853;46.166;3.640;2023-12-28T12:26:47;13.65;;;2.95;;
74102;SDS011;62853;46.166;3.640;2023-12-28T12:29:15;6.25;;;1.73;;
74102;SDS011;62853;46.166;3.640;2023-12-28T12:31:41;7.47;;;1.40;;
74102;SDS011;62853;46.166;3.640;2023-12-28T12:34:11;10.65;;;1.90;;
74102;SDS011;62853;46.166;3.640;2023-12-28T12:36:37;8.07;;;1.63;;
74102;SDS011;62853;46.166;3.640;2023-12-28T12:39:03;6.55;;;1.30;;
74102;SDS011;62853;46.166;3.640;2023-12-28T12:41:31;6.80;;;1.70;;
74102;SDS011;62853;46.166;3.640;2023-12-28T12:43:58;6.70;;;1.40;;
74102;SDS011;62853;46.166;3.640;2023-12-28T12:46:24;7.25;;;1.52;;
74102;SDS011;62853;46.166;3.640;2023-12-28T12:48:56;6.45;;;1.50;;
74102;SDS011;62853;46.166;3.640;2023-12-28T12:51:27;8.13;;;1.73;;
74102;SDS011;62853;46.166;3.640;2023-12-28T12:53:57;11.27;;;1.90;;
74102;SDS011;62853;46.166;3.640;2023-12-28T12:56:23;6.10;;;1.70;;
74102;SDS011;62853;46.166;3.640;2023-12-28T12:58:50;6.18;;;1.30;;
74102;SDS011;62853;46.166;3.640;2023-12-28T13:01:15;7.72;;;1.85;;
74102;SDS011;62853;46.166;3.640;2023-12-28T13:03:41;10.13;;;1.63;;
74102;SDS011;62853;46.166;3.640;2023-12-28T13:06:06;6.68;;;1.80;;
74102;SDS011;62853;46.166;3.640;2023-12-28T13:08:32;7.13;;;1.50;;
74102;SDS011;62853;46.166;3.640;2023-12-28T13:10:58;8.88;;;2.65;;
74102;SDS011;62853;46.166;3.640;2023-12-28T13:13:23;8.00;;;2.35;;
74102;SDS011;62853;46.166;3.640;2023-12-28T13:15:48;7.00;;;1.55;;
74102;SDS011;62853;46.166;3.640;2023-12-28T13:18:14;10.13;;;1.95;;
74102;SDS011;62853;46.166;3.640;2023-12-28T13:20:39;6.25;;;1.75;;
74102;SDS011;62853;46.166;3.640;2023-12-28T13:23:04;10.88;;;1.88;;
74102;SDS011;62853;46.166;3.640;2023-12-28T13:25:30;8.50;;;1.98;;
74102;SDS011;62853;46.166;3.640;2023-12-28T13:27:56;9.77;;;2.20;;
74102;SDS011;62853;46.166;3.640;2023-12-28T13:30:21;7.18;;;1.63;;
74102;SDS011;62853;46.166;3.640;2023-12-28T13:32:47;5.53;;;2.10;;
74102;SDS011;62853;46.166;3.640;2023-12-28T13:35:12;8.00;;;1.83;;
74102;SDS011;62853;46.166;3.640;2023-12-28T13:37:38;7.90;;;1.85;;
74102;SDS011;62853;46.166;3.640;2023-12-28T13:40:03;5.80;;;1.27;;
74102;SDS011;62853;46.166;3.640;2023-12-28T13:42:30;8.07;;;1.80;;
74102;SDS011;62853;46.166;3.640;2023-12-28T13:44:55;6.00;;;1.27;;
74102;SDS011;62853;46.166;3.640;2023-12-28T13:47:21;8.20;;;1.52;;
74102;SDS011;62853;46.166;3.640;2023-12-28T13:49:46;11.30;;;2.17;;
74102;SDS011;62853;46.166;3.640;2023-12-28T13:52:12;7.38;;;1.52;;
74102;SDS011;62853;46.166;3.640;2023-12-28T13:54:38;8.63;;;2.10;;
74102;SDS011;62853;46.166;3.640;2023-12-28T13:57:03;8.43;;;2.15;;
74102;SDS011;62853;46.166;3.640;2023-12-28T13:59:29;5.85;;;1.60;;
74102;SDS011;62853;46.166;3.640;2023-12-28T14:01:54;6.75;;;1.70;;
74102;SDS011;62853;46.166;3.640;2023-12-28T14:04:19;11.77;;;2.08;;
74102;SDS011;62853;46.166;3.640;2023-12-28T14:06:45;6.53;;;1.40;;
74102;SDS011;62853;46.166;3.640;2023-12-28T14:09:10;9.07;;;1.90;;
74102;SDS011;62853;46.166;3.640;2023-12-28T14:11:37;7.72;;;1.50;;
74102;SDS011;62853;46.166;3.640;2023-12-28T14:14:02;6.18;;;1.60;;
74102;SDS011;62853;46.166;3.640;2023-12-28T14:16:28;5.13;;;1.38;;
74102;SDS011;62853;46.166;3.640;2023-12-28T14:18:53;7.00;;;2.00;;
74102;SDS011;62853;46.166;3.640;2023-12-28T14:21:19;8.10;;;1.52;;
74102;SDS011;62853;46.166;3.640;2023-12-28T14:23:44;11.55;;;2.20;;
74102;SDS011;62853;46.166;3.640;2023-12-28T14:26:13;7.65;;;1.73;;
74102;SDS011;62853;46.166;3.640;2023-12-28T14:28:43;9.73;;;1.40;;
74102;SDS011;62853;46.166;3.640;2023-12-28T14:31:09;5.75;;;1.67;;
74102;SDS011;62853;46.166;3.640;2023-12-28T14:33:36;7.40;;;1.40;;
74102;SDS011;62853;46.166;3.640;2023-12-28T14:36:01;5.18;;;1.60;;
74102;SDS011;62853;46.166;3.640;2023-12-28T14:38:28;9.70;;;1.90;;
74102;SDS011;62853;46.166;3.640;2023-12-28T14:40:54;4.75;;;1.85;;
74102;SDS011;62853;46.166;3.640;2023-12-28T14:43:20;6.30;;;1.70;;
74102;SDS011;62853;46.166;3.640;2023-12-28T14:45:46;7.85;;;1.80;;
74102;SDS011;62853;46.166;3.640;2023-12-28T14:48:12;7.72;;;1.70;;